Buena Vista, CO

8:56 PM MDT on April 27, 2017 (GMT -0600)
NW of Buena Vista | | Change Station

Elev 8200 ft 38.86 °N, 106.17 °W | Updated 2 minutes ago

Overcast
Overcast
28.0 °F
Feels Like 16 °F
N
17.0
Wind Variable Wind from NNW
Gusts 23.0 mph

Today
High -- | Low -- °F
--% Chance of Precip.
Yesterday
High -- | Low -- °F
Precip. -- in
Pressure 29.70 in
Visibility 10.0 miles
Clouds Mostly Cloudy 5500 ft
Overcast 7000 ft
Windchill 16 °F
Dew Point 23 °F
Humidity 82%
Rainfall 0.02 in
Snow Depth Not available.
6:11 AM 7:53 PM
Waxing Crescent, 4% visible
METAR KAEJ 280235Z AUTO 32012G19KT 10SM BKN055 OVC070 01/M06 A2970 RMK AO2 T00071056
Pressure 29.70 in
Visibility 10.0 miles
Clouds Mostly Cloudy 5500 ft
Overcast 7000 ft
Windchill 16 °F
Dew Point 23 °F
Humidity 82%
Rainfall 0.02 in
Snow Depth Not available.
6:11 AM 7:53 PM
Waxing Crescent, 4% visible
METAR KAEJ 280235Z AUTO 32012G19KT 10SM BKN055 OVC070 01/M06 A2970 RMK AO2 T00071056

Get Severe Weather Alerts

Thanks for signing up!

Be on the lookout for a verification email in your inbox.

You'll start receiving the daily forecast at 8 AM.

×

10-Day Weather Forecast

Almanac

Astronomy

Apr. 27, 2017 Rise Set
Actual Time
Civil Twilight
Nautical Twilight
Astronomical Twilight
Moon
Length of Visible Light
Length of Day
Tomorrow will be .
, % of the Moon is Illuminated

Today's Extremes

State Highs State Lows

Community

WunderPhotos

WunderBlog® & News

Nearby

Air Quality

  Air Quality AQ Index Pollutant
Not available.

Snow Depth

Station Depth Elevation

Earthquake Activity

City Distance Mag. Time & Date
Minimum magnitude displayed is 2.5.

Coastal Water Temperatures

Place Temperature

Stations

Nearby Weather Stations

Station Location Temp. Windchill Dew Point Humidity Wind Precip. Elev Updated Type
                   

Watches & Warnings

There are currently no watches in effect.